createdAt,value
2019-03-15T00:00:24.002Z,99602.59
2019-03-15T00:02:50.502Z,99601.61
2019-03-15T00:05:17.968Z,99608.50
2019-03-15T00:07:44.137Z,99617.70
2019-03-15T00:10:10.605Z,99613.53
2019-03-15T00:12:37.884Z,99623.58
2019-03-15T00:15:06.875Z,99625.27
2019-03-15T00:17:33.120Z,99614.94
2019-03-15T00:19:59.354Z,99614.30
2019-03-15T00:22:26.774Z,99622.55
2019-03-15T00:24:53.001Z,99624.48
2019-03-15T00:27:19.124Z,99629.02
2019-03-15T00:29:45.309Z,99625.58
2019-03-15T00:32:12.955Z,99627.36
2019-03-15T00:34:39.068Z,99632.33
2019-03-15T00:37:05.181Z,99629.52
2019-03-15T00:39:31.293Z,99625.50
2019-03-15T00:41:57.607Z,99621.55
2019-03-15T00:44:23.738Z,99630.52
2019-03-15T00:46:49.860Z,99636.70
2019-03-15T00:49:15.985Z,99636.77
2019-03-15T00:51:42.090Z,99638.80
2019-03-15T00:54:09.303Z,99647.03
2019-03-15T00:56:35.491Z,99633.02
2019-03-15T00:59:01.847Z,99629.52
2019-03-15T01:01:27.979Z,99627.95
2019-03-15T01:03:55.410Z,99646.26
2019-03-15T01:06:21.631Z,99643.02
2019-03-15T01:08:47.912Z,99646.28
2019-03-15T01:11:13.995Z,99655.86
2019-03-15T01:13:40.086Z,99652.69
2019-03-15T01:16:06.431Z,99652.06
2019-03-15T01:18:32.516Z,99648.19
2019-03-15T01:20:59.742Z,99651.62
2019-03-15T01:23:25.847Z,99655.92
2019-03-15T01:25:52.065Z,99645.78
2019-03-15T01:28:18.282Z,99651.54
2019-03-15T01:30:44.389Z,99649.03
2019-03-15T01:33:10.525Z,99650.61
2019-03-15T01:35:36.653Z,99653.20
2019-03-15T01:38:02.982Z,99660.95
2019-03-15T01:40:30.077Z,99649.13
2019-03-15T01:42:56.396Z,99656.44
2019-03-15T01:45:22.510Z,99656.59
2019-03-15T01:47:48.697Z,99660.19
2019-03-15T01:50:14.982Z,99657.52
2019-03-15T01:52:41.242Z,99665.20
2019-03-15T01:55:07.424Z,99661.31
2019-03-15T01:57:33.744Z,99660.66
2019-03-15T01:59:59.971Z,99665.83
2019-03-15T02:02:26.087Z,99658.59
2019-03-15T02:04:52.294Z,99660.47
2019-03-15T02:07:18.517Z,99660.88
2019-03-15T02:09:44.736Z,99662.95
2019-03-15T02:12:10.810Z,99660.76
2019-03-15T02:14:36.930Z,99657.23
2019-03-15T02:17:03.119Z,99658.86
2019-03-15T02:19:29.235Z,99658.09
2019-03-15T02:21:55.385Z,99656.44
2019-03-15T02:24:21.477Z,99662.45
2019-03-15T02:26:48.464Z,99669.50
2019-03-15T02:29:14.744Z,99665.41
2019-03-15T02:31:40.843Z,99658.46
2019-03-15T02:34:07.033Z,99661.61
2019-03-15T02:36:33.138Z,99658.73
2019-03-15T02:38:59.235Z,99648.03
2019-03-15T02:41:25.464Z,99646.52
2019-03-15T02:43:51.635Z,99651.91
2019-03-15T02:46:17.871Z,99651.54
2019-03-15T02:48:44.054Z,99655.41
2019-03-15T02:51:10.276Z,99658.50
2019-03-15T02:53:36.517Z,99658.52
2019-03-15T02:56:02.865Z,99667.13
2019-03-15T02:58:29.069Z,99662.88
2019-03-15T03:00:55.202Z,99669.71
2019-03-15T03:03:21.545Z,99667.65
2019-03-15T03:05:47.723Z,99666.48
2019-03-15T03:08:14.390Z,99667.36
2019-03-15T03:10:41.083Z,99671.08
2019-03-15T03:13:07.207Z,99660.88
2019-03-15T03:15:33.427Z,99665.48
2019-03-15T03:17:59.556Z,99658.60
2019-03-15T03:20:25.619Z,99676.19
2019-03-15T03:22:51.847Z,99672.73
2019-03-15T03:25:18.019Z,99665.27
2019-03-15T03:27:44.252Z,99672.89
2019-03-15T03:30:10.554Z,99667.94
2019-03-15T03:32:36.847Z,99675.69
2019-03-15T03:35:04.776Z,99669.78
2019-03-15T03:37:30.893Z,99675.88
2019-03-15T03:39:57.001Z,99664.97
2019-03-15T03:42:23.248Z,99667.13
2019-03-15T03:44:49.654Z,99664.34
2019-03-15T03:47:15.822Z,99660.39
2019-03-15T03:49:42.008Z,99671.73
2019-03-15T03:52:08.176Z,99660.97
2019-03-15T03:54:34.479Z,99668.48
2019-03-15T03:57:00.759Z,99662.77
2019-03-15T03:59:26.971Z,99665.70
2019-03-15T04:01:53.430Z,99653.55
2019-03-15T04:04:19.614Z,99649.55
2019-03-15T04:06:45.870Z,99649.27
2019-03-15T04:09:12.177Z,99652.62
2019-03-15T04:11:38.298Z,99657.79
2019-03-15T04:14:04.664Z,99666.66
2019-03-15T04:16:30.788Z,99660.45
2019-03-15T04:18:56.932Z,99655.28
2019-03-15T04:21:23.138Z,99655.94
2019-03-15T04:23:49.287Z,99641.28
2019-03-15T04:26:15.519Z,99642.22
2019-03-15T04:28:41.728Z,99639.85
2019-03-15T04:31:07.848Z,99629.86
2019-03-15T04:33:34.048Z,99631.59
2019-03-15T04:36:00.289Z,99628.14
2019-03-15T04:38:26.501Z,99630.16
2019-03-15T04:40:52.789Z,99639.98
2019-03-15T04:43:18.998Z,99640.72
2019-03-15T04:45:45.259Z,99645.45
2019-03-15T04:48:11.496Z,99647.27
2019-03-15T04:50:37.681Z,99650.56
2019-03-15T04:53:03.804Z,99652.12
2019-03-15T04:55:30.241Z,99656.52
2019-03-15T04:57:56.344Z,99660.47
2019-03-15T05:00:22.599Z,99660.59
2019-03-15T05:02:48.725Z,99648.39
2019-03-15T05:05:14.867Z,99653.20
2019-03-15T05:07:41.066Z,99654.35
2019-03-15T05:10:08.093Z,99653.28
2019-03-15T05:12:34.386Z,99643.09
2019-03-15T05:15:00.767Z,99641.72
2019-03-15T05:17:26.990Z,99644.38
2019-03-15T05:19:53.206Z,99639.69
2019-03-15T05:22:19.362Z,99632.38
2019-03-15T05:24:45.512Z,99631.75
2019-03-15T05:27:11.836Z,99631.94
2019-03-15T05:29:37.998Z,99625.00
2019-03-15T05:32:04.329Z,99622.54
2019-03-15T05:34:30.510Z,99613.92
2019-03-15T05:36:56.768Z,99608.82
2019-03-15T05:39:22.940Z,99605.45
2019-03-15T05:41:49.047Z,99608.12
2019-03-15T05:44:15.123Z,99615.95
2019-03-15T05:46:41.443Z,99612.61
2019-03-15T05:49:07.770Z,99613.00
2019-03-15T05:51:33.926Z,99602.57
2019-03-15T05:54:00.107Z,99605.53
2019-03-15T05:56:26.328Z,99603.94
2019-03-15T05:58:52.443Z,99599.69
2019-03-15T06:01:18.675Z,99591.94
2019-03-15T06:03:49.011Z,99592.73
2019-03-15T06:06:12.899Z,99586.58
2019-03-15T06:08:39.143Z,99584.92
2019-03-15T06:11:05.452Z,99586.64
2019-03-15T06:13:31.564Z,99593.59
2019-03-15T06:15:57.706Z,99598.84
2019-03-15T06:18:23.816Z,99610.03
2019-03-15T06:20:49.968Z,99608.31
2019-03-15T06:23:17.063Z,99606.40
2019-03-15T06:25:43.232Z,99603.64
2019-03-15T06:28:09.455Z,99594.84
2019-03-15T06:30:35.546Z,99590.16
2019-03-15T06:33:01.770Z,99589.17
2019-03-15T06:35:28.049Z,99581.04
2019-03-15T06:37:54.266Z,99575.32
2019-03-15T06:40:20.469Z,99575.92
2019-03-15T06:42:46.728Z,99566.59
2019-03-15T06:45:13.495Z,99573.28
2019-03-15T06:47:39.847Z,99578.75
2019-03-15T06:50:07.032Z,99575.81
2019-03-15T06:52:33.285Z,99572.84
2019-03-15T06:55:00.723Z,99568.48
2019-03-15T06:57:26.949Z,99567.56
2019-03-15T06:59:53.088Z,99545.22
2019-03-15T07:02:19.662Z,99548.67
2019-03-15T07:04:45.914Z,99535.94
2019-03-15T07:07:15.103Z,99535.19
2019-03-15T07:09:41.271Z,99535.73
2019-03-15T07:12:09.978Z,99536.72
2019-03-15T07:14:36.292Z,99537.20
2019-03-15T07:17:03.703Z,99531.30
2019-03-15T07:19:30.646Z,99533.03
2019-03-15T07:21:56.938Z,99527.91
2019-03-15T07:24:25.641Z,99519.67
2019-03-15T07:26:51.939Z,99517.68
2019-03-15T07:29:19.081Z,99517.68
2019-03-15T07:31:45.398Z,99517.36
2019-03-15T07:34:13.923Z,99529.89
2019-03-15T07:36:39.490Z,99512.25
2019-03-15T07:39:05.929Z,99509.73
2019-03-15T07:41:32.169Z,99515.27
2019-03-15T07:43:58.334Z,99503.75
2019-03-15T07:46:24.518Z,99517.94
2019-03-15T07:48:51.834Z,99523.89
2019-03-15T07:51:18.004Z,99508.69
2019-03-15T07:53:44.252Z,99515.00
2019-03-15T07:56:10.460Z,99514.55
2019-03-15T07:58:37.710Z,99516.59
2019-03-15T08:01:04.057Z,99507.17
2019-03-15T08:03:30.268Z,99506.19
2019-03-15T08:05:56.393Z,99509.62
2019-03-15T08:08:22.668Z,99503.47
2019-03-15T08:10:48.867Z,99496.20
2019-03-15T08:13:15.061Z,99498.43
2019-03-15T08:15:41.519Z,99501.02
2019-03-15T08:18:07.597Z,99501.02
2019-03-15T08:20:33.832Z,99502.62
2019-03-15T08:22:59.916Z,99497.45
2019-03-15T08:25:26.140Z,99497.33
2019-03-15T08:27:52.241Z,99500.82
2019-03-15T08:30:18.493Z,99499.09
2019-03-15T08:32:44.790Z,99498.30
2019-03-15T08:35:12.388Z,99491.30
2019-03-15T08:37:38.697Z,99485.69
2019-03-15T08:40:09.408Z,99479.28
2019-03-15T08:42:35.734Z,99489.55
2019-03-15T08:45:04.636Z,99481.11
2019-03-15T08:47:30.884Z,99487.58
2019-03-15T08:49:57.008Z,99476.00
2019-03-15T08:52:23.110Z,99467.33
2019-03-15T08:54:49.449Z,99460.42
2019-03-15T08:57:15.524Z,99458.27
2019-03-15T08:59:53.910Z,99453.17
2019-03-15T09:02:09.842Z,99450.20
2019-03-15T09:04:36.080Z,99441.53
2019-03-15T09:07:02.377Z,99442.88
2019-03-15T09:09:29.628Z,99462.22
2019-03-15T09:11:55.815Z,99450.14
2019-03-15T09:14:22.163Z,99451.86
2019-03-15T09:16:49.273Z,99452.73
2019-03-15T09:19:15.492Z,99446.32
2019-03-15T09:21:41.596Z,99447.67
2019-03-15T09:24:09.673Z,99436.91
2019-03-15T09:26:35.798Z,99434.36
2019-03-15T09:29:02.241Z,99438.45
2019-03-15T09:31:28.556Z,99438.52
2019-03-15T09:33:54.792Z,99439.66
2019-03-15T09:36:20.917Z,99421.05
2019-03-15T09:38:47.126Z,99417.61
2019-03-15T09:41:13.303Z,99400.80
2019-03-15T09:43:39.452Z,99400.80
2019-03-15T09:46:05.703Z,99395.69
2019-03-15T09:48:31.899Z,99374.59
2019-03-15T09:50:58.028Z,99366.35
2019-03-15T09:53:24.128Z,99365.94
2019-03-15T09:55:50.436Z,99362.52
2019-03-15T09:58:16.690Z,99359.47
2019-03-15T10:00:42.805Z,99370.40
2019-03-15T10:03:21.459Z,99361.40
2019-03-15T10:05:37.185Z,99358.81
2019-03-15T10:08:03.393Z,99366.23
2019-03-15T10:10:29.566Z,99354.60
2019-03-15T10:13:05.910Z,99350.72
2019-03-15T10:15:26.461Z,99351.63
2019-03-15T10:17:52.144Z,99327.58
2019-03-15T10:20:18.443Z,99328.97
2019-03-15T10:22:44.727Z,99327.72
2019-03-15T10:25:12.256Z,99323.56
2019-03-15T10:27:38.617Z,99342.59
2019-03-15T10:30:16.250Z,99341.81
2019-03-15T10:32:42.490Z,99332.55
2019-03-15T10:35:10.794Z,99305.20
2019-03-15T10:37:36.909Z,99314.91
2019-03-15T10:40:09.554Z,99324.57
2019-03-15T10:42:36.877Z,99312.20
2019-03-15T10:45:06.695Z,99314.41
2019-03-15T10:47:32.811Z,99328.27
2019-03-15T10:49:58.946Z,99309.77
2019-03-15T10:52:25.119Z,99312.01
2019-03-15T10:54:51.231Z,99314.36
2019-03-15T10:57:17.372Z,99314.00
2019-03-15T10:59:43.605Z,99301.94
2019-03-15T11:02:10.344Z,99311.95
2019-03-15T11:04:36.458Z,99303.80
2019-03-15T11:07:02.800Z,99303.88
2019-03-15T11:09:29.244Z,99298.85
2019-03-15T11:11:55.428Z,99296.78
2019-03-15T11:14:21.568Z,99297.38
2019-03-15T11:16:47.780Z,99294.03
2019-03-15T11:19:15.615Z,99294.13
2019-03-15T11:21:42.175Z,99292.02
2019-03-15T11:24:08.388Z,99294.75
2019-03-15T11:26:34.582Z,99287.50
2019-03-15T11:29:00.939Z,99294.47
2019-03-15T11:31:27.237Z,99301.02
2019-03-15T11:33:53.562Z,99291.11
2019-03-15T11:36:19.646Z,99292.03
2019-03-15T11:38:45.862Z,99301.67
2019-03-15T11:41:12.284Z,99309.91
2019-03-15T11:43:38.428Z,99307.31
2019-03-15T11:46:04.774Z,99299.59
2019-03-15T11:48:31.123Z,99298.37
2019-03-15T11:50:57.461Z,99307.16
2019-03-15T11:53:23.650Z,99297.36
2019-03-15T11:55:49.937Z,99277.87
2019-03-15T11:58:16.029Z,99274.47
2019-03-15T12:00:42.206Z,99284.49
2019-03-15T12:03:08.330Z,99290.15
2019-03-15T12:05:34.673Z,99284.95
2019-03-15T12:08:00.899Z,99278.06
2019-03-15T12:10:27.190Z,99282.02
2019-03-15T12:12:53.339Z,99276.48
2019-03-15T12:15:19.645Z,99269.55
2019-03-15T12:17:45.881Z,99280.89
2019-03-15T12:20:12.764Z,99291.36
2019-03-15T12:22:39.234Z,99278.33
2019-03-15T12:25:07.409Z,99266.60
2019-03-15T12:27:33.623Z,99254.87
2019-03-15T12:29:59.844Z,99252.27
2019-03-15T12:32:26.073Z,99257.48
2019-03-15T12:34:52.224Z,99280.08
2019-03-15T12:37:18.381Z,99267.90
2019-03-15T12:39:44.531Z,99264.01
2019-03-15T12:42:10.850Z,99259.66
2019-03-15T12:44:39.191Z,99255.31
2019-03-15T12:47:06.319Z,99265.32
2019-03-15T12:49:32.925Z,99241.84
2019-03-15T12:51:59.065Z,99241.41
2019-03-15T12:54:25.259Z,99233.59
2019-03-15T12:56:54.049Z,99250.98
2019-03-15T12:59:19.560Z,99235.78
2019-03-15T13:01:45.737Z,99247.48
2019-03-15T13:04:12.285Z,99252.28
2019-03-15T13:06:39.509Z,99244.44
2019-03-15T13:09:05.732Z,99254.02
2019-03-15T13:11:32.046Z,99254.45
2019-03-15T13:13:58.303Z,99254.02
2019-03-15T13:16:24.571Z,99236.20
2019-03-15T13:18:50.891Z,99251.41
2019-03-15T13:21:17.030Z,99216.59
2019-03-15T13:23:43.298Z,99216.16
2019-03-15T13:26:09.444Z,99219.19
2019-03-15T13:28:35.707Z,99227.47
2019-03-15T13:31:01.902Z,99217.48
2019-03-15T13:33:28.180Z,99232.28
2019-03-15T13:35:54.424Z,99217.49
2019-03-15T13:38:20.659Z,99225.34
2019-03-15T13:40:46.878Z,99221.41
2019-03-15T13:43:16.024Z,99219.26
2019-03-15T13:45:44.778Z,99223.59
2019-03-15T13:48:11.083Z,99221.87
2019-03-15T13:50:37.327Z,99219.25
2019-03-15T13:53:03.441Z,99230.55
2019-03-15T13:55:29.532Z,99256.59
2019-03-15T13:57:55.909Z,99235.77
2019-03-15T14:00:22.190Z,99223.62
2019-03-15T14:02:48.482Z,99220.12
2019-03-15T14:05:14.717Z,99222.73
2019-03-15T14:07:40.814Z,99229.26
2019-03-15T14:10:11.887Z,99221.86
2019-03-15T14:12:38.118Z,99230.55
2019-03-15T14:15:07.906Z,99239.24
2019-03-15T14:17:34.093Z,99225.31
2019-03-15T14:20:00.411Z,99220.53
2019-03-15T14:22:27.658Z,99231.41
2019-03-15T14:24:53.787Z,99205.33
2019-03-15T14:27:27.606Z,99200.09
2019-03-15T14:29:48.310Z,99201.82
2019-03-15T14:32:14.799Z,99198.34
2019-03-15T14:34:41.007Z,99190.09
2019-03-15T14:37:10.193Z,99194.02
2019-03-15T14:39:35.743Z,99201.00
2019-03-15T14:42:02.047Z,99194.45
2019-03-15T14:44:28.229Z,99207.06
2019-03-15T14:46:54.359Z,99253.98
2019-03-15T14:49:20.559Z,99282.68
2019-03-15T14:51:47.009Z,99300.94
2019-03-15T14:54:13.249Z,99321.56
2019-03-15T14:56:39.420Z,99321.96
2019-03-15T14:59:05.664Z,99319.47
2019-03-15T15:01:31.998Z,99309.23
2019-03-15T15:03:58.259Z,99320.41
2019-03-15T15:06:24.578Z,99326.34
2019-03-15T15:08:50.912Z,99319.93
2019-03-15T15:11:17.047Z,99320.84
2019-03-15T15:13:43.287Z,99329.97
2019-03-15T15:16:09.548Z,99348.52
2019-03-15T15:18:35.664Z,99330.83
2019-03-15T15:21:01.903Z,99338.65
2019-03-15T15:23:28.247Z,99337.73
2019-03-15T15:25:54.495Z,99340.76
2019-03-15T15:28:20.620Z,99366.30
2019-03-15T15:30:46.975Z,99375.73
2019-03-15T15:33:13.257Z,99356.19
2019-03-15T15:35:41.619Z,99359.31
2019-03-15T15:38:07.728Z,99348.55
2019-03-15T15:40:33.975Z,99347.28
2019-03-15T15:43:00.426Z,99345.37
2019-03-15T15:45:29.718Z,99341.56
2019-03-15T15:47:57.500Z,99338.56
2019-03-15T15:50:23.762Z,99338.11
2019-03-15T15:52:49.970Z,99315.63
2019-03-15T15:55:19.503Z,99317.38
2019-03-15T15:57:47.645Z,99320.39
2019-03-15T16:00:17.532Z,99309.14
2019-03-15T16:02:43.927Z,99318.69
2019-03-15T16:05:10.478Z,99329.05
2019-03-15T16:07:36.790Z,99330.78
2019-03-15T16:10:06.157Z,99344.66
2019-03-15T16:12:32.300Z,99347.33
2019-03-15T16:14:58.627Z,99336.89
2019-03-15T16:17:24.777Z,99330.45
2019-03-15T16:19:51.103Z,99331.67
2019-03-15T16:22:17.310Z,99332.61
2019-03-15T16:24:43.501Z,99330.86
2019-03-15T16:27:09.643Z,99328.31
2019-03-15T16:29:35.977Z,99331.37
2019-03-15T16:32:02.406Z,99323.09
2019-03-15T16:34:28.726Z,99328.28
2019-03-15T16:36:54.953Z,99312.73
2019-03-15T16:39:21.233Z,99321.88
2019-03-15T16:41:47.345Z,99322.30
2019-03-15T16:44:13.738Z,99326.12
2019-03-15T16:46:39.962Z,99335.21
2019-03-15T16:49:06.077Z,99333.50
2019-03-15T16:51:32.247Z,99346.49
2019-03-15T16:53:58.499Z,99349.14
2019-03-15T16:56:24.920Z,99345.73
2019-03-15T16:58:51.145Z,99342.19
2019-03-15T17:01:17.716Z,99352.09
2019-03-15T17:03:43.956Z,99363.38
2019-03-15T17:06:10.310Z,99382.85
2019-03-15T17:08:36.762Z,99375.09
2019-03-15T17:11:03.488Z,99375.98
2019-03-15T17:13:29.669Z,99397.69
2019-03-15T17:15:56.096Z,99402.02
2019-03-15T17:18:22.388Z,99399.50
2019-03-15T17:20:49.739Z,99394.30
2019-03-15T17:23:15.935Z,99397.77
2019-03-15T17:25:42.207Z,99399.55
2019-03-15T17:28:08.446Z,99414.22
2019-03-15T17:30:36.392Z,99416.81
2019-03-15T17:33:05.966Z,99420.26
2019-03-15T17:35:30.797Z,99425.99
2019-03-15T17:37:57.097Z,99429.02
2019-03-15T17:40:23.413Z,99442.39
2019-03-15T17:42:49.740Z,99445.42
2019-03-15T17:45:16.062Z,99462.77
2019-03-15T17:47:42.405Z,99458.48
2019-03-15T17:50:15.346Z,99471.00
2019-03-15T17:52:41.690Z,99487.05
2019-03-15T17:55:08.150Z,99484.42
2019-03-15T17:57:34.500Z,99488.20
2019-03-15T18:00:33.091Z,99502.98
2019-03-15T18:02:59.423Z,99508.09
2019-03-15T18:05:25.853Z,99513.68
2019-03-15T18:07:52.299Z,99496.67
2019-03-15T18:10:21.755Z,99507.45
2019-03-15T18:12:48.013Z,99508.42
2019-03-15T18:15:14.320Z,99516.98
2019-03-15T18:17:40.698Z,99518.74
2019-03-15T18:20:07.815Z,99534.63
2019-03-15T18:22:34.256Z,99545.30
2019-03-15T18:25:00.625Z,99542.66
2019-03-15T18:27:27.069Z,99553.88
2019-03-15T18:29:53.570Z,99571.53
2019-03-15T18:32:20.418Z,99570.59
2019-03-15T18:34:47.189Z,99571.02
2019-03-15T18:37:13.841Z,99570.12
2019-03-15T18:39:40.176Z,99573.19
2019-03-15T18:42:06.509Z,99581.68
2019-03-15T18:44:32.975Z,99578.73
2019-03-15T18:46:59.194Z,99581.20
2019-03-15T18:49:26.631Z,99576.59
2019-03-15T18:51:52.856Z,99587.36
2019-03-15T18:54:19.287Z,99579.05
2019-03-15T18:56:45.517Z,99581.65
2019-03-15T18:59:11.885Z,99596.05
2019-03-15T19:01:38.291Z,99589.52
2019-03-15T19:04:04.676Z,99598.42
2019-03-15T19:06:30.923Z,99603.38
2019-03-15T19:08:57.271Z,99607.61
2019-03-15T19:11:23.612Z,99616.55
2019-03-15T19:13:49.955Z,99634.15
2019-03-15T19:16:20.255Z,99623.50
2019-03-15T19:18:44.365Z,99627.81
2019-03-15T19:21:10.659Z,99627.77
2019-03-15T19:23:37.286Z,99638.85
2019-03-15T19:26:03.689Z,99648.75
2019-03-15T19:28:30.012Z,99657.92
2019-03-15T19:30:56.394Z,99660.09
2019-03-15T19:33:22.751Z,99671.26
2019-03-15T19:35:49.154Z,99669.00
2019-03-15T19:38:15.375Z,99672.94
2019-03-15T19:40:41.627Z,99673.00
2019-03-15T19:43:08.090Z,99673.21
2019-03-15T19:45:34.424Z,99679.86
2019-03-15T19:48:00.609Z,99680.90
2019-03-15T19:50:27.054Z,99689.91
2019-03-15T19:52:53.417Z,99687.14
2019-03-15T19:55:19.820Z,99689.64
2019-03-15T19:57:46.311Z,99693.41
2019-03-15T20:00:19.464Z,99701.58
2019-03-15T20:02:45.977Z,99712.64
2019-03-15T20:05:12.691Z,99720.36
2019-03-15T20:07:39.101Z,99721.21
2019-03-15T20:10:16.115Z,99724.72
2019-03-15T20:12:40.845Z,99725.16
2019-03-15T20:15:09.595Z,99738.50
2019-03-15T20:17:36.083Z,99747.06
2019-03-15T20:20:04.965Z,99749.73
2019-03-15T20:22:31.630Z,99749.20
2019-03-15T20:24:58.961Z,99750.82
2019-03-15T20:27:25.641Z,99760.53
2019-03-15T20:29:52.015Z,99766.25
2019-03-15T20:32:18.369Z,99770.45
2019-03-15T20:34:44.843Z,99768.86
2019-03-15T20:37:11.190Z,99788.77
2019-03-15T20:39:37.678Z,99788.05
2019-03-15T20:42:04.761Z,99793.53
2019-03-15T20:44:31.050Z,99792.63
2019-03-15T20:46:57.191Z,99787.61
2019-03-15T20:49:23.423Z,99788.41
2019-03-15T20:51:49.791Z,99793.30
2019-03-15T20:54:16.290Z,99796.01
2019-03-15T20:56:42.653Z,99800.41
2019-03-15T20:59:08.940Z,99799.41
2019-03-15T21:01:35.274Z,99802.19
2019-03-15T21:04:02.906Z,99807.19
2019-03-15T21:06:29.423Z,99816.26
2019-03-15T21:08:58.301Z,99817.17
2019-03-15T21:11:24.858Z,99817.78
2019-03-15T21:13:51.089Z,99821.98
2019-03-15T21:16:18.309Z,99830.23
2019-03-15T21:18:44.983Z,99825.05
2019-03-15T21:21:11.499Z,99828.38
2019-03-15T21:23:37.608Z,99822.73
2019-03-15T21:26:03.967Z,99822.66
2019-03-15T21:28:30.409Z,99827.70
2019-03-15T21:30:56.851Z,99836.83
2019-03-15T21:33:23.469Z,99835.89
2019-03-15T21:35:49.745Z,99840.11
2019-03-15T21:38:15.975Z,99848.06
2019-03-15T21:40:42.176Z,99845.90
2019-03-15T21:43:08.708Z,99833.45
2019-03-15T21:45:35.123Z,99833.50
2019-03-15T21:48:01.546Z,99841.69
2019-03-15T21:50:27.796Z,99850.56
2019-03-15T21:52:54.223Z,99848.17
2019-03-15T21:55:20.789Z,99856.01
2019-03-15T21:57:46.994Z,99855.21
2019-03-15T22:00:14.427Z,99859.09
2019-03-15T22:02:41.792Z,99865.32
2019-03-15T22:05:08.242Z,99878.94
2019-03-15T22:07:34.640Z,99871.65
2019-03-15T22:10:00.965Z,99875.31
2019-03-15T22:12:28.456Z,99871.50
2019-03-15T22:14:54.722Z,99865.63
2019-03-15T22:17:21.199Z,99870.35
2019-03-15T22:19:47.610Z,99867.98
2019-03-15T22:22:13.938Z,99878.94
2019-03-15T22:24:40.317Z,99885.34
2019-03-15T22:27:06.905Z,99885.70
2019-03-15T22:29:33.217Z,99886.55
2019-03-15T22:31:59.645Z,99887.84
2019-03-15T22:34:26.012Z,99899.34
2019-03-15T22:36:52.407Z,99903.31
2019-03-15T22:39:18.847Z,99895.12
2019-03-15T22:41:45.218Z,99902.67
2019-03-15T22:44:11.563Z,99898.72
2019-03-15T22:46:37.890Z,99905.05
2019-03-15T22:49:04.356Z,99908.78
2019-03-15T22:51:30.794Z,99912.10
2019-03-15T22:53:57.198Z,99910.09
2019-03-15T22:56:23.381Z,99918.22
2019-03-15T22:58:49.544Z,99926.20
2019-03-15T23:01:29.310Z,99923.69
2019-03-15T23:03:44.014Z,99929.62
2019-03-15T23:06:10.482Z,99946.65
2019-03-15T23:08:36.591Z,99943.22
2019-03-15T23:11:03.054Z,99953.31
2019-03-15T23:13:29.527Z,99938.88
2019-03-15T23:15:55.713Z,99942.84
2019-03-15T23:18:21.965Z,99939.23
2019-03-15T23:20:48.240Z,99960.78
2019-03-15T23:23:23.684Z,99964.84
2019-03-15T23:25:43.248Z,99957.55
2019-03-15T23:28:09.996Z,99956.70
2019-03-15T23:30:36.456Z,99954.88
2019-03-15T23:33:02.794Z,99955.14
2019-03-15T23:35:29.130Z,99957.00
2019-03-15T23:37:55.375Z,99956.23
2019-03-15T23:40:21.496Z,99944.14
2019-03-15T23:42:47.790Z,99964.11
2019-03-15T23:45:14.127Z,99967.20
2019-03-15T23:47:40.389Z,99967.77
2019-03-15T23:50:13.572Z,99969.09
2019-03-15T23:52:39.770Z,99974.18
2019-03-15T23:55:06.186Z,99973.98
2019-03-15T23:57:32.279Z,99975.84
2019-03-15T23:59:58.409Z,99983.13
